METAR AND TAF INFORMATION
METAR FOR ORMM
ADDS - METARS form results

(1850 UTC 23 April 2018)
Data provider http://aviationweather.gov/adds/metars/
 
METAR text: ORMM 231800Z 29006KT 6000 NSC 24/10 Q1012 NOSIG
Conditions at: ORMM (BASRAH/MAGAL , IQ) observed 1800 UTC 23 April 2018
Temperature: 24.0°C (75°F)
Dewpoint: 10.0°C (50°F) [RH = 41%]
Pressure (altimeter): 29.88 inches Hg (1012.0 mb)
Winds: from the WNW (290 degrees) at 7 MPH (6 knots; 3.1 m/s)
Visibility: 4 miles (6 km)
Ceiling: at least 12,000 feet AGL
Clouds: sky clear below 12,000 feet AGL
Weather: no significant weather observed at this time

Forecast for: ORMM (BASRAH/MAGAL , IQ)
Text: TAF ORMM 231600Z 2318/2418 31005KT 7000 NSC
Forecast period: 1800 UTC 23 April 2018 to 1800 UTC 24 April 2018
Forecast type: FROM: standard forecast or significant change
Winds: from the NW (310 degrees) at 6 MPH (5 knots; 2.6 m/s)
Visibility: 4 miles (7 km)
Clouds: not forecast
Weather: no significant weather forecast for this period
Forecast for: ORMM (BASRAH/MAGAL , IQ)
Text: TAF ORMM 231600Z 2318/2418 31005KT 7000 NSC
Forecast period: 1800 UTC 23 April 2018 to 1800 UTC 24 April 2018
Forecast type: FROM: standard forecast or significant change
Winds: from the NW (310 degrees) at 6 MPH (5 knots; 2.6 m/s)
Visibility: 4 miles (7 km)
Clouds: not forecast
Weather: no significant weather forecast for this period
Forecast for: ORMM (BASRAH/MAGAL , IQ)
Text: TAF ORMM 231600Z 2318/2418 31005KT 7000 NSC
Forecast period: 1400 to 1800 UTC 24 April 2018
Forecast type: TEMPORARY: The following changes expected for less than half the time period
Winds: from the N (10 degrees) at 9 MPH (8 knots; 4.2 m/s)
Visibility: 6 or more miles (10+ km)
Weather: NSW  (no significant weather)
Forecast for: ORMM (BASRAH/MAGAL , IQ)
Text: TAF ORMM 231600Z 2318/2418 31005KT 7000 NSC
Forecast period: 1400 to 1800 UTC 24 April 2018
Forecast type: TEMPORARY: The following changes expected for less than half the time period
Winds: from the N (10 degrees) at 9 MPH (8 knots; 4.2 m/s)
Visibility: 6 or more miles (10+ km)
Weather: NSW  (no significant weather)

 AIRPORT MAP

 RUNWAY INFORMATION
Runway 14 Runway length 13124 ft Runway width 148 ft
Runway elevation 10 ft Runway displaced threshold 0 ft Runway heading 138
Runway 32 Runway length 13124 ft Runway width 148 ft
Runway elevation 10 ft Runway displaced threshold 0 ft Runway heading 318

 AIRPORT FREQUENCIES
Type APP Name APP Frequency 119.4 MHZ
Type GND Name GND Frequency 125.9 MHZ
Type OPS Name OPS Frequency 132.7 MHZ
Type TWR Name TWR Frequency 118.7 MHZ

 AIRPORT NEAR NAVIGATION AIDS
Type TACAN Name Basrah Frequency 108300 KHZ
Type VOR-DME Name Basrah Frequency 112300 KHZ



Created by Rayan Sharara,

Powered by Virtual Airlines Manager [v2.6.2]